Aviation Digital Data Service (ADDS)

Output produced by METARs form (1826 UTC 16 August 2018)
found at http://www.aviationweather.gov/adds/metars/
 
EPBY 161800Z 10003KT CAVOK 22/13 Q1018
TAF EPBY 161730Z 1618/1718 15006KT CAVOK 
       
TAF EPCE 161700Z 1618/1703 12006KT CAVOK
       
TAF EPDA 161700Z 1618/1703 11008KT CAVOK
       
TAF EPDE 161700Z 1618/1703 VRB03KT 9999 SCT040 
     BECMG 1619/1621 5000 BR MIFG 
     TEMPO 1619/1622 1000 BR
       
EPGD 161800Z 13005KT CAVOK 20/13 Q1018
TAF EPGD 161730Z 1618/1718 14008KT CAVOK
       
TAF EPIR 161100Z 1612/1621 14003KT CAVOK
       
EPKK 161800Z 07005KT CAVOK 22/15 Q1018
TAF EPKK 161730Z 1618/1718 06006KT CAVOK 
     PROB30 1622/1705 4000 BR 
     TEMPO 1710/1715 SCT040TCU
       
EPKT 161800Z 07005KT CAVOK 21/13 Q1018
TAF EPKT 161730Z 1618/1718 04006KT CAVOK 
     PROB30 1622/1705 4000 BR 
     TEMPO 1710/1715 SCT040TCU
       
EPLB 161800Z 07004KT CAVOK 22/16 Q1018
TAF EPLB 161730Z 1618/1703 06005KT CAVOK
       
EPLL 161800Z 08004KT CAVOK 21/13 Q1018
TAF EPLL 161730Z 1618/1718 10005KT CAVOK
       
TAF EPLY 161700Z 1618/1703 10006KT CAVOK
       
TAF EPMB 161400Z 1615/1624 12005KT CAVOK
       
TAF EPMI 161700Z 1618/1703 14006KT CAVOK
       
TAF EPMM 161700Z 1618/1703 VRB04KT CAVOK 
     PROB30 1700/1703 5000 BR
       
EPMO 161800Z 09004KT CAVOK 21/14 Q1019
TAF EPMO 161730Z 1618/1718 09005KT CAVOK
       
TAF EPOK 161700Z 1618/1703 12006KT CAVOK 
     BECMG 1621/1623 17004KT
       
EPPO 161800Z 15005KT CAVOK 23/10 Q1017
TAF EPPO 161730Z 1618/1718 14005KT CAVOK
       
TAF EPPR 161100Z 1612/1621 VRB02KT 9999 SCT030 
     BECMG 1618/1620 CAVOK
       
TAF EPRA 161700Z 1618/1703 09004KT CAVOK 
     PROB40 1700/1703 VRB03KT 4000 BR MIFG
       
EPRZ 161800Z 05005KT CAVOK 21/17 Q1018
TAF EPRZ 161730Z 1618/1718 06008KT CAVOK 
     TEMPO 1622/1705 4000 BR 
     TEMPO 1710/1718 SHRA BKN033CB 
     PROB40 
     TEMPO 1712/1717 TSRA
       
EPSC 161800Z 13006KT CAVOK 25/12 Q1015
TAF EPSC 161730Z 1618/1718 16010KT CAVOK
       
EPSY 161800Z 00000KT CAVOK 19/16 Q1019
TAF EPSY 161730Z 1618/1703 VRB03KT CAVOK
       
TAF EPTM 161700Z 1618/1703 VRB03KT CAVOK
       
EPWA 161800Z 06005KT CAVOK 23/13 Q1019 NOSIG
TAF EPWA 161730Z 1618/1718 09005KT CAVOK
       
EPWR 161800Z 13002KT CAVOK 22/12 Q1017
TAF EPWR 161730Z 1618/1718 13005KT CAVOK
       
EPZG 161300Z 18006KT 100V230 CAVOK 27/11 Q1018
TAF EPZG 161130Z 1612/1621 15005KT CAVOK
       
EPZG 161300Z 18006KT 100V230 CAVOK 27/11 Q1018
TAF EPZG 161130Z 1612/1621 15005KT CAVOK
       
EPKK 161800Z 07005KT CAVOK 22/15 Q1018
TAF EPKK 161730Z 1618/1718 06006KT CAVOK 
     PROB30 1622/1705 4000 BR 
     TEMPO 1710/1715 SCT040TCU
       
TAF EPDE 161700Z 1618/1703 VRB03KT 9999 SCT040 
     BECMG 1619/1621 5000 BR MIFG 
     TEMPO 1619/1622 1000 BR
       
EPSC 161800Z 13006KT CAVOK 25/12 Q1015
TAF EPSC 161730Z 1618/1718 16010KT CAVOK
       
EPRZ 161800Z 05005KT CAVOK 21/17 Q1018
TAF EPRZ 161730Z 1618/1718 06008KT CAVOK 
     TEMPO 1622/1705 4000 BR 
     TEMPO 1710/1718 SHRA BKN033CB 
     PROB40 
     TEMPO 1712/1717 TSRA
       
EPPO 161800Z 15005KT CAVOK 23/10 Q1017
TAF EPPO 161730Z 1618/1718 14005KT CAVOK
       
EPLL 161800Z 08004KT CAVOK 21/13 Q1018
TAF EPLL 161730Z 1618/1718 10005KT CAVOK
       
EPWA 161800Z 06005KT CAVOK 23/13 Q1019 NOSIG
TAF EPWA 161730Z 1618/1718 09005KT CAVOK
       
EPKT 161800Z 07005KT CAVOK 21/13 Q1018
TAF EPKT 161730Z 1618/1718 04006KT CAVOK 
     PROB30 1622/1705 4000 BR 
     TEMPO 1710/1715 SCT040TCU
       
EPGD 161800Z 13005KT CAVOK 20/13 Q1018
TAF EPGD 161730Z 1618/1718 14008KT CAVOK
       
EPWR 161800Z 13002KT CAVOK 22/12 Q1017
TAF EPWR 161730Z 1618/1718 13005KT CAVOK
       
EPBY 161800Z 10003KT CAVOK 22/13 Q1018
TAF EPBY 161730Z 1618/1718 15006KT CAVOK 
       
EPSY 161800Z 00000KT CAVOK 19/16 Q1019
TAF EPSY 161730Z 1618/1703 VRB03KT CAVOK